Time;durP1;ratioP1;P1;durP2;ratioP2;P2;SDS_P1;SDS_P2;PMS_P1;PMS_P2;Temp;Humidity;BMP_temperature;BMP_pressure;BME280_temperature;BME280_humidity;BME280_pressure;Samples;Min_cycle;Max_cycle;Signal;HPM_P1;HPM_P2
2023/08/19 00:01:10;;;;;;;11.20;4.65;;;23.10;99.90;;;;;;4958783;28;20046;-71
2023/08/19 00:03:35;;;;;;;5.93;4.20;;;23.20;99.90;;;;;;4956948;28;20042;-70
2023/08/19 00:06:07;;;;;;;5.78;4.53;;;23.20;99.90;;;;;;4955549;28;20031;-70
2023/08/19 00:08:33;;;;;;;8.43;5.28;;;23.10;99.90;;;;;;4940362;28;20047;-71
2023/08/19 00:10:59;;;;;;;8.13;4.63;;;23.10;99.90;;;;;;4957149;28;20417;-73
2023/08/19 00:13:24;;;;;;;8.27;4.95;;;23.10;99.90;;;;;;4957146;28;20479;-72
2023/08/19 00:15:50;;;;;;;9.50;4.95;;;23.10;99.90;;;;;;4959234;28;20406;-72
2023/08/19 00:18:16;;;;;;;7.65;5.07;;;23.10;99.90;;;;;;4959017;28;20050;-70
2023/08/19 00:20:42;;;;;;;7.95;4.97;;;23.00;99.90;;;;;;4965127;28;20035;-71
2023/08/19 00:23:08;;;;;;;9.10;4.82;;;23.00;99.90;;;;;;4958157;28;20486;-70
2023/08/19 00:25:34;;;;;;;7.07;5.18;;;23.00;99.90;;;;;;4963202;28;20062;-70
2023/08/19 00:27:59;;;;;;;8.05;4.82;;;23.10;99.90;;;;;;4958898;28;20092;-70
2023/08/19 00:30:26;;;;;;;11.55;5.65;;;22.90;99.90;;;;;;4962649;28;20031;-72
2023/08/19 00:32:51;;;;;;;8.40;4.97;;;23.00;99.90;;;;;;4957369;28;20522;-71
2023/08/19 00:35:17;;;;;;;7.65;5.50;;;23.00;99.90;;;;;;4958277;28;20046;-71
2023/08/19 00:37:42;;;;;;;9.52;5.10;;;23.00;99.90;;;;;;4957419;28;20040;-71
2023/08/19 00:40:16;;;;;;;8.07;4.40;;;23.00;99.90;;;;;;4956307;28;20125;-71
2023/08/19 00:42:42;;;;;;;8.05;5.40;;;23.00;99.90;;;;;;4956580;28;20494;-71
2023/08/19 00:45:08;;;;;;;7.93;5.35;;;23.00;99.90;;;;;;4956059;28;20089;-70
2023/08/19 00:47:35;;;;;;;9.43;5.63;;;22.90;99.90;;;;;;4959594;28;20047;-72
2023/08/19 00:50:06;;;;;;;10.88;4.55;;;22.90;99.90;;;;;;4957517;28;20032;-70
2023/08/19 00:52:33;;;;;;;9.38;4.90;;;22.90;99.90;;;;;;4955593;28;20453;-71
2023/08/19 00:54:58;;;;;;;8.70;5.80;;;22.80;99.90;;;;;;4955394;28;20511;-72
2023/08/19 00:57:24;;;;;;;11.48;4.88;;;22.80;99.90;;;;;;4957402;28;20038;-70
2023/08/19 00:59:50;;;;;;;8.73;5.05;;;22.80;99.90;;;;;;4956159;28;20142;-70
2023/08/19 01:02:16;;;;;;;8.10;5.95;;;22.80;99.90;;;;;;4956241;28;20429;-71
2023/08/19 01:04:41;;;;;;;8.15;5.57;;;22.80;99.90;;;;;;4955309;28;20141;-72
2023/08/19 01:07:24;;;;;;;10.70;5.30;;;22.80;99.90;;;;;;4956945;28;20093;-71
2023/08/19 01:10:25;;;;;;;9.55;5.93;;;22.70;99.90;;;;;;4960381;28;20498;-72
2023/08/19 01:13:11;;;;;;;8.27;4.85;;;22.70;99.90;;;;;;4958676;28;20107;-70
2023/08/19 01:15:47;;;;;;;10.52;5.82;;;22.70;99.90;;;;;;4954479;28;20035;-73
2023/08/19 01:18:15;;;;;;;9.07;5.25;;;22.70;99.90;;;;;;4958477;28;20062;-70
2023/08/19 01:20:41;;;;;;;9.05;5.35;;;22.70;99.90;;;;;;4959318;28;20066;-70
2023/08/19 01:23:17;;;;;;;9.73;5.53;;;22.70;99.90;;;;;;4956889;28;20066;-71
2023/08/19 01:25:43;;;;;;;10.38;5.95;;;22.70;99.90;;;;;;4955564;28;20039;-71
2023/08/19 01:28:09;;;;;;;10.13;5.82;;;22.70;99.90;;;;;;4948386;28;20027;-70
2023/08/19 01:30:34;;;;;;;10.00;5.68;;;22.80;99.90;;;;;;4957737;28;20035;-72
2023/08/19 01:33:02;;;;;;;12.32;6.05;;;22.80;99.90;;;;;;4958317;28;20122;-71
2023/08/19 01:35:31;;;;;;;9.65;6.05;;;22.80;99.90;;;;;;4954100;28;20055;-71
2023/08/19 01:38:16;;;;;;;11.95;6.60;;;22.80;99.90;;;;;;4958904;28;20037;-71
2023/08/19 01:40:42;;;;;;;13.45;6.18;;;22.80;99.90;;;;;;4955405;28;20081;-71
2023/08/19 01:43:11;;;;;;;9.68;5.93;;;22.90;99.90;;;;;;4955076;28;20081;-70
2023/08/19 01:45:38;;;;;;;18.60;6.45;;;22.90;99.90;;;;;;4956595;28;20035;-70
2023/08/19 01:48:04;;;;;;;10.13;6.38;;;22.80;99.90;;;;;;4955178;28;20367;-71
2023/08/19 01:50:29;;;;;;;11.43;6.45;;;22.80;99.90;;;;;;4954377;28;20043;-72
2023/08/19 01:52:55;;;;;;;11.60;6.32;;;22.80;99.90;;;;;;4957267;28;20031;-70
2023/08/19 01:55:22;;;;;;;11.30;6.70;;;22.80;99.90;;;;;;4954080;28;20038;-70
2023/08/19 01:57:47;;;;;;;11.25;6.95;;;22.80;99.90;;;;;;4955337;28;20031;-70
2023/08/19 02:00:13;;;;;;;8.98;5.53;;;22.90;99.90;;;;;;4956734;28;20062;-71
2023/08/19 02:02:39;;;;;;;9.13;5.63;;;22.80;99.90;;;;;;4955129;28;20433;-73
2023/08/19 02:05:05;;;;;;;11.85;6.38;;;22.80;99.90;;;;;;4955060;28;20035;-71
2023/08/19 02:07:31;;;;;;;11.88;6.75;;;22.80;99.90;;;;;;4956283;28;20058;-72
2023/08/19 02:09:56;;;;;;;9.00;5.90;;;22.80;99.90;;;;;;4955233;28;20035;-70
2023/08/19 02:12:22;;;;;;;11.05;6.82;;;22.80;99.90;;;;;;4956116;28;20065;-70
2023/08/19 02:14:47;;;;;;;9.82;6.32;;;22.80;99.90;;;;;;4956780;28;20037;-70
2023/08/19 02:17:13;;;;;;;12.13;7.70;;;22.80;99.90;;;;;;4954896;28;20042;-72
2023/08/19 02:19:39;;;;;;;12.60;7.00;;;22.80;99.90;;;;;;4955181;28;20043;-71
2023/08/19 02:22:04;;;;;;;10.10;6.90;;;22.80;99.90;;;;;;4956055;28;20595;-72
2023/08/19 02:24:30;;;;;;;11.52;6.00;;;22.80;99.90;;;;;;4953902;28;20096;-72
2023/08/19 02:26:55;;;;;;;10.18;6.55;;;22.80;99.90;;;;;;4953714;28;20039;-71
2023/08/19 02:29:21;;;;;;;10.38;6.53;;;22.80;99.90;;;;;;4955156;28;20038;-70
2023/08/19 02:31:47;;;;;;;11.23;6.95;;;22.80;99.90;;;;;;4953606;28;20058;-70
2023/08/19 02:34:13;;;;;;;12.13;6.72;;;22.80;99.90;;;;;;4953688;28;20445;-70
2023/08/19 02:36:38;;;;;;;13.93;7.22;;;22.70;99.90;;;;;;4958411;28;20097;-70
2023/08/19 02:39:04;;;;;;;11.60;6.78;;;22.70;99.90;;;;;;4953612;28;20085;-71
2023/08/19 02:41:30;;;;;;;11.80;6.57;;;22.80;99.90;;;;;;4957385;28;20035;-69
2023/08/19 02:43:55;;;;;;;12.43;7.53;;;22.70;99.90;;;;;;4953523;28;20115;-69
2023/08/19 02:46:21;;;;;;;12.02;6.53;;;22.70;99.90;;;;;;4956672;28;20035;-69
2023/08/19 02:48:46;;;;;;;10.48;6.03;;;22.70;99.90;;;;;;4953963;28;20035;-72
2023/08/19 02:51:12;;;;;;;11.20;6.70;;;22.70;99.90;;;;;;4953952;28;20043;-70
2023/08/19 02:53:38;;;;;;;11.52;6.80;;;22.70;99.90;;;;;;4958835;28;20074;-71
2023/08/19 02:56:06;;;;;;;15.13;7.57;;;22.70;99.90;;;;;;4953264;28;20057;-71
2023/08/19 02:58:32;;;;;;;10.43;6.72;;;22.70;99.90;;;;;;4955474;28;20071;-72
2023/08/19 03:00:58;;;;;;;11.38;7.10;;;22.70;99.90;;;;;;4953736;28;20047;-72
2023/08/19 03:03:24;;;;;;;10.40;6.03;;;22.70;99.90;;;;;;4949241;28;20039;-71
2023/08/19 03:05:49;;;;;;;13.13;6.30;;;22.70;99.90;;;;;;4954592;28;20047;-72
2023/08/19 03:08:15;;;;;;;14.60;7.50;;;22.80;99.90;;;;;;4955059;28;20049;-71
2023/08/19 03:10:41;;;;;;;10.07;6.45;;;22.80;99.90;;;;;;4957039;28;20035;-71
2023/08/19 03:13:08;;;;;;;12.18;6.40;;;22.80;99.90;;;;;;4955337;28;20093;-71
2023/08/19 03:15:36;;;;;;;10.57;6.32;;;22.80;99.90;;;;;;4951970;28;20487;-71
2023/08/19 03:18:02;;;;;;;11.05;6.95;;;22.80;99.90;;;;;;4954134;28;20460;-71
2023/08/19 03:20:28;;;;;;;13.05;6.22;;;22.70;99.90;;;;;;4952533;28;20031;-71
2023/08/19 03:22:53;;;;;;;12.27;6.82;;;22.80;99.90;;;;;;4958308;28;20406;-70
2023/08/19 03:25:19;;;;;;;11.07;6.45;;;22.70;99.90;;;;;;4953306;28;20110;-71
2023/08/19 03:27:44;;;;;;;11.40;6.28;;;22.70;99.90;;;;;;4957322;28;20502;-70
2023/08/19 03:30:10;;;;;;;14.40;6.03;;;22.70;99.90;;;;;;4956251;28;20038;-70
2023/08/19 03:32:36;;;;;;;10.80;6.60;;;22.70;99.90;;;;;;4957615;28;20127;-71
2023/08/19 03:35:02;;;;;;;11.07;6.45;;;22.70;99.90;;;;;;4953965;28;20146;-71
2023/08/19 03:37:28;;;;;;;14.02;6.75;;;22.70;99.90;;;;;;4953910;28;20035;-70
2023/08/19 03:39:54;;;;;;;12.35;6.63;;;22.70;99.90;;;;;;4953873;28;20781;-70
2023/08/19 03:42:19;;;;;;;10.65;6.28;;;22.70;99.90;;;;;;4953349;28;20039;-72
2023/08/19 03:44:45;;;;;;;11.70;6.80;;;22.70;99.90;;;;;;4957166;28;20406;-71
2023/08/19 03:47:12;;;;;;;11.38;6.45;;;22.70;99.90;;;;;;4953303;28;20047;-71
2023/08/19 03:49:38;;;;;;;11.95;6.38;;;22.70;99.90;;;;;;4954844;28;20050;-71
2023/08/19 03:52:08;;;;;;;11.63;6.43;;;22.70;99.90;;;;;;4952892;28;20043;-70
2023/08/19 03:54:34;;;;;;;15.38;7.53;;;22.60;99.90;;;;;;4959835;28;20051;-71
2023/08/19 03:57:00;;;;;;;16.30;6.82;;;22.60;99.90;;;;;;4955699;28;20206;-70
2023/08/19 03:59:25;;;;;;;11.65;7.32;;;22.60;99.90;;;;;;4955555;28;20126;-71
2023/08/19 04:01:51;;;;;;;11.18;6.50;;;22.50;99.90;;;;;;4955667;28;20039;-71
2023/08/19 04:04:16;;;;;;;11.95;7.10;;;22.50;99.90;;;;;;4954910;28;20122;-69
2023/08/19 04:06:42;;;;;;;15.57;6.95;;;22.50;99.90;;;;;;4959831;28;20039;-70
2023/08/19 04:09:08;;;;;;;11.63;6.20;;;22.50;99.90;;;;;;4956729;28;20039;-70
2023/08/19 04:11:34;;;;;;;9.02;6.15;;;22.60;99.90;;;;;;4968414;28;20035;-70
2023/08/19 04:13:59;;;;;;;11.32;6.47;;;22.50;99.90;;;;;;4962312;28;20035;-69
2023/08/19 04:16:25;;;;;;;13.98;6.93;;;22.50;99.90;;;;;;4958262;28;20035;-69
2023/08/19 04:18:51;;;;;;;11.93;6.78;;;22.50;99.90;;;;;;4962582;28;20060;-70
2023/08/19 04:21:17;;;;;;;10.18;6.50;;;22.50;99.90;;;;;;4955864;28;20038;-70
2023/08/19 04:23:43;;;;;;;10.77;6.35;;;22.50;99.90;;;;;;4958730;28;20462;-70
2023/08/19 04:26:08;;;;;;;8.98;5.55;;;22.60;99.90;;;;;;4957511;28;20093;-70
2023/08/19 04:28:34;;;;;;;11.52;6.55;;;22.50;99.90;;;;;;4956872;28;20089;-70
2023/08/19 04:31:04;;;;;;;13.52;6.65;;;22.60;99.90;;;;;;4957918;28;20478;-71
2023/08/19 04:33:30;;;;;;;14.50;6.88;;;22.60;99.90;;;;;;4957571;28;20036;-70
2023/08/19 04:35:56;;;;;;;12.65;7.22;;;22.60;99.90;;;;;;4955736;28;20146;-72
2023/08/19 04:38:21;;;;;;;9.85;6.03;;;22.60;99.90;;;;;;4953715;28;20543;-71
2023/08/19 04:40:47;;;;;;;11.40;6.80;;;22.60;99.90;;;;;;4959844;28;20051;-69
2023/08/19 04:43:12;;;;;;;14.70;7.45;;;22.60;99.90;;;;;;4956985;28;20041;-70
2023/08/19 04:45:38;;;;;;;10.95;6.72;;;22.60;99.90;;;;;;4956758;28;20047;-70
2023/08/19 04:48:07;;;;;;;13.63;6.60;;;22.60;99.90;;;;;;4956267;28;20032;-71
2023/08/19 04:50:32;;;;;;;14.27;7.00;;;22.50;99.90;;;;;;4954224;28;20092;-70
2023/08/19 04:52:58;;;;;;;13.00;6.95;;;22.40;99.90;;;;;;4956483;28;20035;-71
2023/08/19 04:55:26;;;;;;;11.50;6.85;;;22.40;99.90;;;;;;4956469;28;20038;-71
2023/08/19 04:57:51;;;;;;;14.18;7.18;;;22.30;99.90;;;;;;4955763;28;20506;-69
2023/08/19 05:00:17;;;;;;;13.15;7.32;;;22.20;99.90;;;;;;4958593;28;20031;-69
2023/08/19 05:02:43;;;;;;;11.43;7.18;;;22.20;99.90;;;;;;4954725;28;20511;-70
2023/08/19 05:05:08;;;;;;;12.10;6.68;;;22.30;99.90;;;;;;4956784;28;20115;-72
2023/08/19 05:07:34;;;;;;;13.05;7.55;;;22.30;99.90;;;;;;4951834;28;20047;-72
2023/08/19 05:10:00;;;;;;;14.90;7.00;;;22.30;99.90;;;;;;4957041;28;20031;-72
2023/08/19 05:12:25;;;;;;;18.25;7.25;;;22.30;99.90;;;;;;4954722;28;20089;-71
2023/08/19 05:14:51;;;;;;;10.75;6.88;;;22.30;99.90;;;;;;4956818;28;20039;-70
2023/08/19 05:17:17;;;;;;;11.82;6.90;;;22.40;99.90;;;;;;4954977;28;20125;-70
2023/08/19 05:19:43;;;;;;;11.80;6.97;;;22.40;99.90;;;;;;4959340;28;20031;-70
2023/08/19 05:22:09;;;;;;;15.13;7.15;;;22.40;99.90;;;;;;4958849;28;20054;-70
2023/08/19 05:24:34;;;;;;;14.63;6.93;;;22.40;99.90;;;;;;4958080;28;20094;-71
2023/08/19 05:27:00;;;;;;;12.55;6.70;;;22.40;99.90;;;;;;4953325;28;20042;-69
2023/08/19 05:29:26;;;;;;;11.60;6.50;;;22.50;99.90;;;;;;4957213;28;20491;-70
2023/08/19 05:31:52;;;;;;;16.00;7.25;;;22.50;99.90;;;;;;4956982;28;20045;-71
2023/08/19 05:34:17;;;;;;;11.45;6.47;;;22.50;99.90;;;;;;4957050;28;20031;-70
2023/08/19 05:36:43;;;;;;;14.45;7.03;;;22.50;99.90;;;;;;4957990;28;20570;-70
2023/08/19 05:39:09;;;;;;;11.65;6.60;;;22.60;99.90;;;;;;4954535;28;20047;-71
2023/08/19 05:41:35;;;;;;;11.95;6.55;;;22.60;99.90;;;;;;4955889;28;20491;-72
2023/08/19 05:44:00;;;;;;;11.60;6.75;;;22.70;99.90;;;;;;4955463;28;20039;-72
2023/08/19 05:46:26;;;;;;;11.63;6.38;;;22.70;99.90;;;;;;4956851;28;20126;-70
2023/08/19 05:48:52;;;;;;;12.10;6.90;;;22.70;99.90;;;;;;4955266;28;20128;-70
2023/08/19 05:51:19;;;;;;;12.02;7.05;;;22.70;99.90;;;;;;4953813;28;20491;-71
2023/08/19 05:53:44;;;;;;;11.18;6.40;;;22.70;99.90;;;;;;4953427;28;20058;-70
2023/08/19 05:56:10;;;;;;;10.55;7.22;;;22.60;99.90;;;;;;4955963;28;20402;-70
2023/08/19 05:58:37;;;;;;;11.52;6.90;;;22.50;99.90;;;;;;4954356;28;20062;-70
2023/08/19 06:01:06;;;;;;;11.38;7.07;;;22.40;99.90;;;;;;4954958;28;20059;-70
2023/08/19 06:03:32;;;;;;;14.98;7.32;;;22.40;99.90;;;;;;4957952;28;20043;-70
2023/08/19 06:06:04;;;;;;;15.48;7.53;;;22.40;99.90;;;;;;4954697;28;20053;-70
2023/08/19 06:08:29;;;;;;;13.43;7.13;;;22.30;99.90;;;;;;4956537;28;20058;-70
2023/08/19 06:11:05;;;;;;;12.15;7.90;;;22.30;99.90;;;;;;4952311;28;20197;-70
2023/08/19 06:13:31;;;;;;;14.75;7.28;;;22.40;99.90;;;;;;4957916;28;20500;-70
2023/08/19 06:15:57;;;;;;;12.38;7.72;;;22.40;99.90;;;;;;4964596;28;20049;-70
2023/08/19 06:18:23;;;;;;;10.45;7.18;;;22.50;99.90;;;;;;4955691;28;20035;-70
2023/08/19 06:20:51;;;;;;;10.85;6.85;;;22.50;99.90;;;;;;4955888;28;20036;-70
2023/08/19 06:23:18;;;;;;;11.32;7.00;;;22.50;99.90;;;;;;4958992;28;20104;-71
2023/08/19 06:25:48;;;;;;;10.00;6.82;;;22.60;99.90;;;;;;4960763;28;20063;-70
2023/08/19 06:28:15;;;;;;;11.77;6.80;;;22.70;99.90;;;;;;4954465;28;20385;-72
2023/08/19 06:30:41;;;;;;;13.13;6.13;;;22.80;99.90;;;;;;4946477;28;20031;-70
2023/08/19 06:33:07;;;;;;;11.35;6.45;;;22.80;99.90;;;;;;4964337;28;20034;-72
2023/08/19 06:35:33;;;;;;;10.82;6.15;;;23.00;99.90;;;;;;4961344;28;20033;-71
2023/08/19 06:38:03;;;;;;;12.82;6.22;;;23.10;99.90;;;;;;4957776;28;20035;-71
2023/08/19 06:40:33;;;;;;;13.90;6.32;;;23.20;99.90;;;;;;4955693;28;20027;-71
2023/08/19 06:43:00;;;;;;;14.63;6.78;;;23.40;99.90;;;;;;4957550;28;20039;-70
2023/08/19 06:45:26;;;;;;;9.68;6.15;;;23.70;99.90;;;;;;4955259;28;20559;-72
2023/08/19 06:47:53;;;;;;;14.75;4.95;;;24.30;99.90;;;;;;4954756;28;20084;-69
2023/08/19 06:50:19;;;;;;;8.18;5.68;;;25.00;99.90;;;;;;4954848;28;20034;-72
2023/08/19 06:52:45;;;;;;;7.50;4.82;;;25.80;99.90;;;;;;4957836;28;20522;-72
2023/08/19 06:55:12;;;;;;;7.15;4.93;;;26.30;99.90;;;;;;4955187;28;20133;-71
2023/08/19 06:57:47;;;;;;;8.27;4.43;;;26.40;99.90;;;;;;4949399;28;20048;-71
2023/08/19 07:00:14;;;;;;;9.05;5.22;;;26.30;99.90;;;;;;4945049;28;20027;-71
2023/08/19 07:02:40;;;;;;;7.13;4.57;;;26.10;99.90;;;;;;4959498;28;20209;-72
2023/08/19 07:05:16;;;;;;;7.82;4.28;;;25.70;99.90;;;;;;4952041;28;20118;-71
2023/08/19 07:07:47;;;;;;;17.10;5.47;;;25.50;99.90;;;;;;4950561;28;20039;-71
2023/08/19 07:10:15;;;;;;;7.05;4.50;;;25.40;99.90;;;;;;4946514;28;20055;-71
2023/08/19 07:12:42;;;;;;;10.23;4.53;;;25.40;99.90;;;;;;4948181;28;20448;-71
2023/08/19 07:15:12;;;;;;;9.35;4.43;;;25.30;99.90;;;;;;4950385;28;20034;-70
2023/08/19 07:17:43;;;;;;;7.63;4.68;;;25.20;99.90;;;;;;4945652;28;20092;-70
2023/08/19 07:20:21;;;;;;;7.85;4.28;;;25.20;99.90;;;;;;4947737;28;20108;-71
2023/08/19 07:22:48;;;;;;;6.07;3.88;;;25.10;99.90;;;;;;4954913;28;20137;-70
2023/08/19 07:25:15;;;;;;;6.90;4.45;;;25.10;99.90;;;;;;4951882;28;20027;-70
2023/08/19 07:27:44;;;;;;;7.32;3.63;;;25.00;99.90;;;;;;4954080;28;20051;-70
2023/08/19 07:30:11;;;;;;;7.13;4.25;;;25.00;99.90;;;;;;4954717;28;20050;-71
2023/08/19 07:32:38;;;;;;;10.68;5.28;;;25.10;99.90;;;;;;4966244;28;20038;-69
2023/08/19 07:35:04;;;;;;;12.82;4.63;;;25.00;99.90;;;;;;4957025;28;20403;-71
2023/08/19 07:37:30;;;;;;;7.50;4.30;;;24.90;99.90;;;;;;4960635;28;20035;-71
2023/08/19 07:39:57;;;;;;;9.40;4.47;;;24.90;99.90;;;;;;4956448;28;20041;-71
2023/08/19 07:42:23;;;;;;;6.43;4.07;;;24.80;99.90;;;;;;4956333;28;20045;-71
2023/08/19 07:44:48;;;;;;;8.93;4.65;;;24.80;99.90;;;;;;4952830;28;20429;-72
2023/08/19 07:47:14;;;;;;;7.45;4.18;;;24.80;99.90;;;;;;4959678;28;20039;-71
2023/08/19 07:49:39;;;;;;;7.10;4.18;;;24.90;99.90;;;;;;4959443;28;20045;-71
2023/08/19 07:52:05;;;;;;;8.95;4.45;;;24.90;99.90;;;;;;4958820;28;20065;-71
2023/08/19 07:54:31;;;;;;;5.72;4.13;;;24.90;99.90;;;;;;4951670;28;20456;-70
2023/08/19 07:57:00;;;;;;;7.80;4.07;;;24.90;99.90;;;;;;4960801;28;20494;-70
2023/08/19 07:59:26;;;;;;;8.82;4.60;;;24.90;99.90;;;;;;4953143;28;20043;-70
2023/08/19 08:01:52;;;;;;;7.35;4.15;;;24.80;99.90;;;;;;4956845;28;20043;-71
2023/08/19 08:04:18;;;;;;;10.85;4.68;;;24.80;99.90;;;;;;4955675;28;20039;-70
2023/08/19 08:06:45;;;;;;;6.82;4.22;;;24.90;99.90;;;;;;4957620;28;20093;-72
2023/08/19 08:09:11;;;;;;;9.07;4.35;;;24.90;99.90;;;;;;4958063;28;20125;-71
2023/08/19 08:11:37;;;;;;;6.80;3.95;;;24.80;99.90;;;;;;4955281;28;20559;-72
2023/08/19 08:14:02;;;;;;;8.07;4.32;;;24.80;99.90;;;;;;4957901;28;20536;-72
2023/08/19 08:16:28;;;;;;;7.63;4.28;;;24.90;99.90;;;;;;4959492;28;20039;-71
2023/08/19 08:18:54;;;;;;;6.43;4.25;;;24.90;99.90;;;;;;4955653;28;20039;-71
2023/08/19 08:21:20;;;;;;;9.05;4.93;;;24.90;99.90;;;;;;4956115;28;20067;-71
2023/08/19 08:23:46;;;;;;;11.43;4.70;;;25.00;99.90;;;;;;4954259;28;20074;-71
2023/08/19 08:26:11;;;;;;;9.52;4.22;;;25.10;99.90;;;;;;4955915;28;20039;-71
2023/08/19 08:28:37;;;;;;;8.52;5.00;;;25.00;99.90;;;;;;4949931;28;20088;-71
2023/08/19 08:31:03;;;;;;;9.40;4.80;;;24.90;99.90;;;;;;4950968;28;20027;-71
2023/08/19 08:33:28;;;;;;;9.55;5.10;;;24.90;99.90;;;;;;4955530;28;20128;-72
2023/08/19 08:35:54;;;;;;;10.57;5.03;;;24.80;99.90;;;;;;4958112;28;20031;-71
2023/08/19 08:38:19;;;;;;;9.50;5.22;;;24.80;99.90;;;;;;4956500;28;20131;-70
2023/08/19 08:40:45;;;;;;;8.63;5.40;;;24.90;99.90;;;;;;4954926;28;20053;-72
2023/08/19 08:43:13;;;;;;;9.20;5.78;;;24.90;99.90;;;;;;4954403;28;20027;-71
2023/08/19 08:45:40;;;;;;;7.50;5.05;;;25.00;99.90;;;;;;4953544;28;20038;-71
2023/08/19 08:48:07;;;;;;;8.93;4.80;;;25.20;99.90;;;;;;4956950;28;20037;-70
2023/08/19 08:50:33;;;;;;;10.15;4.97;;;25.40;99.90;;;;;;4955051;28;20067;-71
2023/08/19 08:52:59;;;;;;;7.53;4.90;;;25.40;99.90;;;;;;4959339;28;20024;-73
2023/08/19 08:55:25;;;;;;;10.68;5.22;;;25.50;99.90;;;;;;4953743;28;20038;-70
2023/08/19 08:57:51;;;;;;;8.40;5.68;;;25.50;99.90;;;;;;4953810;28;20047;-71
2023/08/19 09:00:16;;;;;;;10.68;6.20;;;25.50;99.90;;;;;;4955942;28;20413;-72
2023/08/19 09:02:44;;;;;;;11.82;5.68;;;25.60;99.90;;;;;;4954160;28;20498;-72
2023/08/19 09:05:10;;;;;;;12.00;5.35;;;25.60;99.90;;;;;;4957768;28;20491;-72
2023/08/19 09:07:40;;;;;;;7.90;4.85;;;25.80;99.90;;;;;;4959143;28;20043;-71
2023/08/19 09:10:12;;;;;;;8.30;5.47;;;26.00;99.90;;;;;;4954066;28;20046;-73
2023/08/19 09:12:49;;;;;;;11.00;5.57;;;26.20;99.90;;;;;;4949953;28;20047;-71
2023/08/19 09:15:17;;;;;;;12.32;5.35;;;26.30;99.90;;;;;;4956676;28;20122;-70
2023/08/19 09:17:44;;;;;;;12.60;6.13;;;26.60;99.90;;;;;;4959026;28;20042;-71
2023/08/19 09:20:12;;;;;;;8.20;5.40;;;26.70;99.90;;;;;;4954836;28;20066;-72
2023/08/19 09:22:41;;;;;;;10.00;5.50;;;26.80;99.90;;;;;;4954345;28;20563;-72
2023/08/19 09:25:07;;;;;;;9.35;5.32;;;26.80;99.90;;;;;;4956422;28;20038;-72
2023/08/19 09:27:33;;;;;;;8.63;4.88;;;26.80;99.90;;;;;;4955497;28;20081;-71
2023/08/19 09:29:59;;;;;;;7.90;4.55;;;26.70;99.90;;;;;;4957565;28;20034;-70
2023/08/19 09:32:32;;;;;;;8.32;3.50;;;26.80;99.90;;;;;;4954192;28;20042;-72
2023/08/19 09:35:05;;;;;;;12.02;3.92;;;26.60;99.90;;;;;;4950537;28;20085;-72
2023/08/19 09:37:32;;;;;;;8.52;4.80;;;26.40;99.90;;;;;;4949832;28;20042;-72
2023/08/19 09:39:58;;;;;;;9.13;4.30;;;26.20;99.90;;;;;;4954428;28;20031;-71
2023/08/19 09:42:24;;;;;;;8.00;3.28;;;26.00;99.90;;;;;;4954106;28;20138;-71
2023/08/19 09:44:51;;;;;;;6.38;3.08;;;25.90;99.90;;;;;;4957341;28;20126;-71
2023/08/19 09:47:16;;;;;;;5.18;2.85;;;25.80;99.90;;;;;;4951006;28;20042;-70
2023/08/19 09:49:42;;;;;;;3.90;2.28;;;25.80;99.90;;;;;;4950333;28;20105;-71
2023/08/19 09:52:19;;;;;;;4.32;2.42;;;25.80;99.90;;;;;;4955730;28;20492;-73
2023/08/19 09:54:53;;;;;;;4.28;1.98;;;26.10;99.90;;;;;;4952190;28;20116;-70
2023/08/19 09:57:39;;;;;;;2.38;1.52;;;26.40;99.90;;;;;;4951410;28;20088;-71
2023/08/19 10:00:05;;;;;;;2.72;1.58;;;26.40;99.90;;;;;;4958048;28;20051;-71
2023/08/19 10:02:32;;;;;;;2.67;1.65;;;26.30;99.90;;;;;;4954805;28;20621;-72
2023/08/19 10:04:58;;;;;;;2.55;1.33;;;26.20;99.90;;;;;;4958380;28;20095;-71
2023/08/19 10:07:30;;;;;;;5.25;1.77;;;26.10;99.90;;;;;;4956990;28;20039;-71
2023/08/19 10:09:57;;;;;;;3.78;1.67;;;26.00;99.90;;;;;;4948338;28;20062;-71
2023/08/19 10:12:25;;;;;;;3.47;1.58;;;26.00;99.90;;;;;;4949471;28;20032;-72
2023/08/19 10:14:56;;;;;;;2.35;1.42;;;26.10;99.90;;;;;;4956596;28;20035;-72
2023/08/19 10:17:25;;;;;;;3.17;1.50;;;26.20;99.90;;;;;;4952509;28;20387;-72
2023/08/19 10:19:59;;;;;;;4.13;1.30;;;26.20;99.90;;;;;;4954029;28;20034;-70
2023/08/19 10:22:26;;;;;;;6.20;1.52;;;26.30;99.90;;;;;;4938499;28;20119;-70
2023/08/19 10:24:54;;;;;;;3.53;1.25;;;26.40;99.90;;;;;;4954686;28;20529;-72
2023/08/19 10:27:19;;;;;;;6.22;1.38;;;26.50;99.90;;;;;;4955976;28;20112;-72
2023/08/19 10:29:46;;;;;;;2.83;1.65;;;26.50;99.90;;;;;;4949633;28;20039;-71
2023/08/19 10:32:27;;;;;;;2.38;1.45;;;26.40;99.90;;;;;;4952954;28;20043;-72
2023/08/19 10:35:09;;;;;;;7.05;2.40;;;26.40;99.90;;;;;;4946921;28;20039;-72
2023/08/19 10:37:55;;;;;;;2.65;1.38;;;26.30;99.90;;;;;;4948560;28;20044;-71
2023/08/19 10:40:25;;;;;;;3.08;1.55;;;26.10;99.90;;;;;;4954895;28;25010;-71
2023/08/19 10:43:00;;;;;;;5.03;1.55;;;26.00;99.90;;;;;;4953216;28;20402;-71
2023/08/19 10:45:32;;;;;;;4.20;2.03;;;26.00;99.90;;;;;;4945776;28;20124;-71
2023/08/19 10:47:58;;;;;;;2.60;1.50;;;25.90;99.90;;;;;;4948992;28;20043;-71
2023/08/19 10:50:27;;;;;;;6.38;1.67;;;25.90;99.90;;;;;;4972510;28;20041;-72
2023/08/19 10:53:07;;;;;;;6.03;2.05;;;26.00;99.90;;;;;;4951628;28;20130;-73
2023/08/19 10:55:52;;;;;;;2.42;1.35;;;26.00;99.90;;;;;;4952293;28;20043;-73
2023/08/19 10:58:18;;;;;;;4.03;1.58;;;25.90;99.90;;;;;;4952895;28;20039;-70
2023/08/19 11:00:45;;;;;;;2.42;1.50;;;26.00;99.90;;;;;;4946693;28;20241;-72
2023/08/19 11:03:12;;;;;;;3.88;1.73;;;26.10;99.90;;;;;;4953292;28;20435;-73
2023/08/19 11:05:46;;;;;;;3.67;2.22;;;26.10;99.90;;;;;;4954018;28;20042;-72
2023/08/19 11:08:12;;;;;;;4.60;2.00;;;26.10;99.90;;;;;;4959328;28;20038;-72
2023/08/19 11:10:38;;;;;;;5.32;2.15;;;26.10;99.90;;;;;;4962530;28;20042;-72
2023/08/19 11:13:04;;;;;;;3.75;2.17;;;26.10;99.90;;;;;;4954653;28;20043;-72
2023/08/19 11:15:30;;;;;;;5.53;2.35;;;26.10;99.90;;;;;;4958680;28;20080;-72
2023/08/19 11:17:55;;;;;;;7.95;3.13;;;26.00;99.90;;;;;;4950618;28;20051;-73
2023/08/19 11:20:28;;;;;;;6.53;2.42;;;26.00;99.90;;;;;;4955258;28;20073;-72
2023/08/19 11:22:55;;;;;;;4.63;1.95;;;25.90;99.90;;;;;;4953433;28;20666;-72
2023/08/19 11:25:20;;;;;;;4.93;2.53;;;25.90;99.90;;;;;;4954488;28;20178;-72
2023/08/19 11:27:46;;;;;;;4.72;2.33;;;26.00;99.90;;;;;;4950770;28;20521;-72
2023/08/19 11:30:18;;;;;;;4.85;2.00;;;26.00;99.90;;;;;;4951719;28;20043;-71
2023/08/19 11:32:46;;;;;;;3.63;1.98;;;26.10;99.90;;;;;;4956795;28;20040;-72
2023/08/19 11:35:12;;;;;;;5.18;2.50;;;26.10;99.90;;;;;;4954415;28;20811;-72
2023/08/19 11:37:40;;;;;;;6.18;2.47;;;26.10;99.90;;;;;;4957544;28;20039;-72
2023/08/19 11:40:06;;;;;;;4.22;1.88;;;26.10;99.90;;;;;;4956042;28;20035;-72
2023/08/19 11:42:31;;;;;;;4.82;2.45;;;26.10;99.90;;;;;;4958350;28;20054;-72
2023/08/19 11:44:57;;;;;;;3.97;2.40;;;26.00;99.90;;;;;;4959368;28;20031;-72
2023/08/19 11:47:24;;;;;;;5.82;3.50;;;26.00;99.90;;;;;;4955803;28;20050;-72
2023/08/19 11:49:50;;;;;;;5.38;2.78;;;26.10;99.90;;;;;;4958505;28;20050;-71
2023/08/19 11:52:20;;;;;;;4.63;2.60;;;26.00;99.90;;;;;;4956233;28;20517;-71
2023/08/19 11:55:00;;;;;;;5.85;2.45;;;25.70;99.90;;;;;;4961044;28;20038;-71
2023/08/19 11:57:32;;;;;;;5.05;2.70;;;25.60;99.90;;;;;;4953405;28;20031;-71
2023/08/19 11:59:57;;;;;;;3.90;2.10;;;25.40;99.90;;;;;;4953160;28;20667;-72
2023/08/19 12:02:24;;;;;;;4.30;2.67;;;25.30;99.90;;;;;;4957866;28;20035;-72
2023/08/19 12:04:53;;;;;;;7.32;2.80;;;25.10;99.90;;;;;;4956446;28;20090;-71
2023/08/19 12:07:26;;;;;;;4.03;2.35;;;24.90;99.90;;;;;;4950712;28;20038;-72
2023/08/19 12:09:56;;;;;;;5.95;2.97;;;24.80;99.90;;;;;;4953653;28;20114;-71
2023/08/19 12:12:21;;;;;;;4.95;2.78;;;24.60;99.90;;;;;;4957485;28;20173;-70
2023/08/19 12:14:47;;;;;;;6.22;2.95;;;24.60;99.90;;;;;;4955074;28;20059;-71
2023/08/19 12:17:13;;;;;;;4.13;2.35;;;24.50;99.90;;;;;;4956869;28;20043;-71
2023/08/19 12:19:39;;;;;;;3.53;1.55;;;24.50;99.90;;;;;;4950216;28;20120;-71
2023/08/19 12:22:04;;;;;;;5.43;2.03;;;24.50;99.90;;;;;;4956100;28;20039;-72
2023/08/19 12:24:30;;;;;;;3.42;1.55;;;24.60;99.90;;;;;;4957158;28;20069;-71
2023/08/19 12:26:55;;;;;;;11.23;1.50;;;24.60;99.90;;;;;;4954690;28;20598;-72
2023/08/19 12:29:22;;;;;;;6.18;1.13;;;24.70;99.90;;;;;;4952841;28;22722;-72
2023/08/19 12:31:47;;;;;;;4.78;1.80;;;24.70;99.90;;;;;;4959939;28;20031;-72
2023/08/19 12:34:15;;;;;;;3.80;0.85;;;24.60;99.90;;;;;;4957672;28;20107;-72
2023/08/19 12:36:40;;;;;;;8.70;1.55;;;24.60;99.90;;;;;;4954477;28;20414;-71
2023/08/19 12:39:06;;;;;;;8.90;1.17;;;24.50;99.90;;;;;;4957423;28;20036;-71
2023/08/19 12:41:32;;;;;;;4.65;1.05;;;24.40;99.90;;;;;;4955526;28;20066;-73
2023/08/19 12:43:58;;;;;;;5.85;1.05;;;24.30;99.90;;;;;;4958463;28;20514;-71